Glencoe, Maryland
Current Conditions -  °F | °C
As of 6:00 PM on Tuesday 27 Jan 2015 (Local Time) from KDMW Reporting Station
Scattered Clouds Scattered Clouds  
Wind Chill: 16°   Ceiling: Unl
Heat Index: 27°   Visibility: 10mi
Dew Point: 21°   Wind: 13mph
Humidity: 80%   Direction: 310°NW
Pressure: 29.82"   Gusts: 20mph
Location:  39.5472°N, 76.6725°W
Report Text: KDMW 272300Z AUTO 31011G17KT 10SM SCT090 M03/M06 A2982 RMK AO2
Loading
Personal Weather Stations






























Interactive Weather Map New forecast layout! Learn more

10-Day Weather Forecast

Advertisements
Track Severe Weather on mobile